createdAt,value
2022-07-31T00:00:26.640Z,7.10
2022-07-31T00:02:54.896Z,9.13
2022-07-31T00:05:23.175Z,7.10
2022-07-31T00:07:51.414Z,6.65
2022-07-31T00:10:19.499Z,10.23
2022-07-31T00:12:47.481Z,7.82
2022-07-31T00:15:17.004Z,7.93
2022-07-31T00:17:46.030Z,7.55
2022-07-31T00:20:16.156Z,8.25
2022-07-31T00:22:44.809Z,8.75
2022-07-31T00:25:14.052Z,10.02
2022-07-31T00:27:42.884Z,7.20
2022-07-31T00:30:12.947Z,6.68
2022-07-31T00:32:42.710Z,6.75
2022-07-31T00:35:12.420Z,7.38
2022-07-31T00:37:41.674Z,8.65
2022-07-31T00:40:11.679Z,7.47
2022-07-31T00:42:40.037Z,7.65
2022-07-31T00:45:10.204Z,7.82
2022-07-31T00:47:43.571Z,10.23
2022-07-31T00:50:12.376Z,8.02
2022-07-31T00:52:40.750Z,7.13
2022-07-31T00:55:10.508Z,7.38
2022-07-31T00:57:38.806Z,8.75
2022-07-31T01:00:07.980Z,9.98
2022-07-31T01:02:37.063Z,8.50
2022-07-31T01:05:07.443Z,8.00
2022-07-31T01:07:35.662Z,8.25
2022-07-31T01:10:10.794Z,7.05
2022-07-31T01:12:47.334Z,8.65
2022-07-31T01:15:20.503Z,7.88
2022-07-31T01:17:50.735Z,6.87
2022-07-31T01:20:20.509Z,7.88
2022-07-31T01:23:08.680Z,7.95
2022-07-31T01:25:47.370Z,8.18
2022-07-31T01:28:25.393Z,7.30
2022-07-31T01:31:24.247Z,8.13
2022-07-31T01:33:53.234Z,7.28
2022-07-31T01:36:23.898Z,7.32
2022-07-31T01:38:55.132Z,9.75
2022-07-31T01:41:28.015Z,6.78
2022-07-31T01:43:58.199Z,9.30
2022-07-31T01:46:29.929Z,8.20
2022-07-31T01:48:59.092Z,10.68
2022-07-31T01:51:28.795Z,7.65
2022-07-31T01:53:57.346Z,7.65
2022-07-31T01:56:26.356Z,7.53
2022-07-31T01:58:57.389Z,7.20
2022-07-31T02:01:28.681Z,7.32
2022-07-31T02:04:00.586Z,7.18
2022-07-31T02:06:30.416Z,7.97
2022-07-31T02:08:59.437Z,6.97
2022-07-31T02:11:27.447Z,7.07
2022-07-31T02:13:59.038Z,8.10
2022-07-31T02:16:29.627Z,7.18
2022-07-31T02:19:00.339Z,6.90
2022-07-31T02:21:28.862Z,8.83
2022-07-31T02:23:57.178Z,8.55
2022-07-31T02:26:27.383Z,9.65
2022-07-31T02:28:55.640Z,7.03
2022-07-31T02:31:24.503Z,7.43
2022-07-31T02:33:54.627Z,8.77
2022-07-31T02:36:23.328Z,9.05
2022-07-31T02:38:52.906Z,6.65
2022-07-31T02:41:22.380Z,7.93
2022-07-31T02:43:50.998Z,7.60
2022-07-31T02:46:20.028Z,7.10
2022-07-31T02:48:49.478Z,8.27
2022-07-31T02:51:19.391Z,6.70
2022-07-31T02:53:47.658Z,6.88
2022-07-31T02:56:16.839Z,7.53
2022-07-31T02:58:44.930Z,7.70
2022-07-31T03:01:14.394Z,8.07
2022-07-31T03:03:43.009Z,7.57
2022-07-31T03:06:11.133Z,7.80
2022-07-31T03:08:40.498Z,7.00
2022-07-31T03:11:09.485Z,6.97
2022-07-31T03:13:38.923Z,6.80
2022-07-31T03:16:11.306Z,7.78
2022-07-31T03:18:40.629Z,10.57
2022-07-31T03:21:11.274Z,7.97
2022-07-31T03:23:41.742Z,6.47
2022-07-31T03:26:10.391Z,8.27
2022-07-31T03:28:38.423Z,6.70
2022-07-31T03:31:09.026Z,6.50
2022-07-31T03:33:37.092Z,6.40
2022-07-31T03:36:05.549Z,6.40
2022-07-31T03:38:42.301Z,7.95
2022-07-31T03:41:13.343Z,7.78
2022-07-31T03:43:44.222Z,6.97
2022-07-31T03:46:17.931Z,6.20
2022-07-31T03:48:46.896Z,7.90
2022-07-31T03:51:15.386Z,6.93
2022-07-31T03:53:44.406Z,7.32
2022-07-31T03:56:14.916Z,6.63
2022-07-31T03:58:42.985Z,9.30
2022-07-31T04:01:17.252Z,7.77
2022-07-31T04:03:48.703Z,7.22
2022-07-31T04:06:16.733Z,7.07
2022-07-31T04:08:44.751Z,8.95
2022-07-31T04:11:14.504Z,8.05
2022-07-31T04:13:43.151Z,8.40
2022-07-31T04:16:11.239Z,8.50
2022-07-31T04:18:39.219Z,7.75
2022-07-31T04:21:07.240Z,7.57
2022-07-31T04:23:35.304Z,7.13
2022-07-31T04:26:04.036Z,8.13
2022-07-31T04:28:33.675Z,7.45
2022-07-31T04:31:01.730Z,7.47
2022-07-31T04:33:29.745Z,9.25
2022-07-31T04:35:57.782Z,7.28
2022-07-31T04:38:26.092Z,8.17
2022-07-31T04:40:54.434Z,7.40
2022-07-31T04:43:22.409Z,7.32
2022-07-31T04:45:51.836Z,9.75
2022-07-31T04:48:19.837Z,8.45
2022-07-31T04:50:48.080Z,8.13
2022-07-31T04:53:16.124Z,9.05
2022-07-31T04:56:04.131Z,8.48
2022-07-31T04:58:33.007Z,8.30
2022-07-31T05:01:02.508Z,8.35
2022-07-31T05:03:30.545Z,11.90
2022-07-31T05:05:58.558Z,10.43
2022-07-31T05:08:26.591Z,8.90
2022-07-31T05:11:12.051Z,9.52
2022-07-31T05:13:40.054Z,8.68
2022-07-31T05:16:12.687Z,8.90
2022-07-31T05:18:40.702Z,8.23
2022-07-31T05:21:08.754Z,9.80
2022-07-31T05:23:36.801Z,10.23
2022-07-31T05:26:05.191Z,9.85
2022-07-31T05:28:33.416Z,8.63
2022-07-31T05:31:01.521Z,7.65
2022-07-31T05:33:31.050Z,8.45
2022-07-31T05:35:59.388Z,8.82
2022-07-31T05:38:28.014Z,7.93
2022-07-31T05:40:56.068Z,8.27
2022-07-31T05:43:24.208Z,9.30
2022-07-31T05:45:52.320Z,7.85
2022-07-31T05:48:20.535Z,9.43
2022-07-31T05:50:51.548Z,8.07
2022-07-31T05:53:20.579Z,11.33
2022-07-31T05:55:50.026Z,9.27
2022-07-31T05:58:20.136Z,11.18
2022-07-31T06:00:51.008Z,9.23
2022-07-31T06:03:24.782Z,9.00
2022-07-31T06:05:54.306Z,8.23
2022-07-31T06:08:22.396Z,8.90
2022-07-31T06:10:50.505Z,8.52
2022-07-31T06:13:19.441Z,9.38
2022-07-31T06:15:49.257Z,9.05
2022-07-31T06:18:18.025Z,9.00
2022-07-31T06:20:46.214Z,10.43
2022-07-31T06:23:22.942Z,9.18
2022-07-31T06:25:58.060Z,10.15
2022-07-31T06:28:37.853Z,8.38
2022-07-31T06:31:18.673Z,9.07
2022-07-31T06:33:48.072Z,8.52
2022-07-31T06:36:16.696Z,8.63
2022-07-31T06:38:46.357Z,10.45
2022-07-31T06:41:35.507Z,9.68
2022-07-31T06:44:03.578Z,8.67
2022-07-31T06:46:31.588Z,8.48
2022-07-31T06:48:59.612Z,8.55
2022-07-31T06:51:31.936Z,8.60
2022-07-31T06:54:03.183Z,8.20
2022-07-31T06:56:31.676Z,9.30
2022-07-31T06:58:59.895Z,9.07
2022-07-31T07:01:28.078Z,9.02
2022-07-31T07:03:56.683Z,9.25
2022-07-31T07:06:25.217Z,8.65
2022-07-31T07:08:53.744Z,8.33
2022-07-31T07:11:23.196Z,10.30
2022-07-31T07:13:51.245Z,12.80
2022-07-31T07:16:19.449Z,9.20
2022-07-31T07:18:47.774Z,10.77
2022-07-31T07:21:15.817Z,8.17
2022-07-31T07:23:43.891Z,8.05
2022-07-31T07:26:11.998Z,8.80
2022-07-31T07:28:41.716Z,8.90
2022-07-31T07:31:09.803Z,8.85
2022-07-31T07:33:40.630Z,9.10
2022-07-31T07:36:22.420Z,11.10
2022-07-31T07:38:53.507Z,8.73
2022-07-31T07:41:23.645Z,8.23
2022-07-31T07:43:53.382Z,8.55
2022-07-31T07:46:22.615Z,8.43
2022-07-31T07:48:52.013Z,9.13
2022-07-31T07:51:21.197Z,8.50
2022-07-31T07:53:49.681Z,8.18
2022-07-31T07:56:18.229Z,7.60
2022-07-31T07:58:46.320Z,9.17
2022-07-31T08:01:16.331Z,8.38
2022-07-31T08:03:49.331Z,8.77
2022-07-31T08:06:20.321Z,8.48
2022-07-31T08:08:48.465Z,8.25
2022-07-31T08:11:17.614Z,8.70
2022-07-31T08:13:50.734Z,8.00
2022-07-31T08:16:21.387Z,7.50
2022-07-31T08:18:49.759Z,7.95
2022-07-31T08:21:18.137Z,6.53
2022-07-31T08:23:46.247Z,9.23
2022-07-31T08:26:14.554Z,7.53
2022-07-31T08:28:50.005Z,8.45
2022-07-31T08:31:20.997Z,7.88
2022-07-31T08:33:49.110Z,6.72
2022-07-31T08:36:17.110Z,7.17
2022-07-31T08:38:45.152Z,7.82
2022-07-31T08:41:15.624Z,7.07
2022-07-31T08:44:00.863Z,6.70
2022-07-31T08:46:34.080Z,7.28
2022-07-31T08:49:03.925Z,6.33
2022-07-31T08:51:50.566Z,6.65
2022-07-31T08:54:20.881Z,6.18
2022-07-31T08:56:52.398Z,5.93
2022-07-31T08:59:23.544Z,6.10
2022-07-31T09:01:56.870Z,6.87
2022-07-31T09:04:26.142Z,5.60
2022-07-31T09:06:54.735Z,6.25
2022-07-31T09:09:22.870Z,6.50
2022-07-31T09:11:53.849Z,6.28
2022-07-31T09:14:30.523Z,6.30
2022-07-31T09:17:00.741Z,7.25
2022-07-31T09:19:52.081Z,6.40
2022-07-31T09:22:23.234Z,6.70
2022-07-31T09:24:51.877Z,7.75
2022-07-31T09:27:20.255Z,7.20
2022-07-31T09:29:49.737Z,6.13
2022-07-31T09:32:20.575Z,5.97
2022-07-31T09:34:49.739Z,6.35
2022-07-31T09:37:19.107Z,5.80
2022-07-31T09:39:52.295Z,6.13
2022-07-31T09:42:21.350Z,6.18
2022-07-31T09:44:50.864Z,6.40
2022-07-31T09:47:23.906Z,6.30
2022-07-31T09:49:56.382Z,5.70
2022-07-31T09:52:24.555Z,6.03
2022-07-31T09:55:02.928Z,6.30
2022-07-31T09:57:54.142Z,6.95
2022-07-31T10:00:22.519Z,7.15
2022-07-31T10:02:54.579Z,5.93
2022-07-31T10:05:25.291Z,6.20
2022-07-31T10:07:54.352Z,7.80
2022-07-31T10:10:23.939Z,6.60
2022-07-31T10:12:55.333Z,4.75
2022-07-31T10:15:24.687Z,5.80
2022-07-31T10:17:55.087Z,5.63
2022-07-31T10:20:27.737Z,5.80
2022-07-31T10:23:00.108Z,6.35
2022-07-31T10:25:30.016Z,5.35
2022-07-31T10:27:58.697Z,5.65
2022-07-31T10:30:28.554Z,5.80
2022-07-31T10:32:58.733Z,5.03
2022-07-31T10:35:27.319Z,6.15
2022-07-31T10:38:02.301Z,5.40
2022-07-31T10:40:36.388Z,6.05
2022-07-31T10:43:19.884Z,5.20
2022-07-31T10:45:49.398Z,6.50
2022-07-31T10:48:19.148Z,5.05
2022-07-31T10:50:48.556Z,6.18
2022-07-31T10:53:19.391Z,5.57
2022-07-31T10:55:47.579Z,4.93
2022-07-31T10:58:16.994Z,4.63
2022-07-31T11:00:45.534Z,5.95
2022-07-31T11:03:15.769Z,4.80
2022-07-31T11:06:00.877Z,4.32
2022-07-31T11:08:41.136Z,5.60
2022-07-31T11:11:09.283Z,4.95
2022-07-31T11:13:46.864Z,4.78
2022-07-31T11:16:15.053Z,6.20
2022-07-31T11:18:46.046Z,6.28
2022-07-31T11:21:37.553Z,5.90
2022-07-31T11:24:12.661Z,4.70
2022-07-31T11:26:43.999Z,5.30
2022-07-31T11:29:58.578Z,5.05
2022-07-31T11:32:02.064Z,5.72
2022-07-31T11:34:30.121Z,5.27
2022-07-31T11:36:59.638Z,5.40
2022-07-31T11:39:36.988Z,4.70
2022-07-31T11:42:07.633Z,5.00
2022-07-31T11:44:36.382Z,4.75
2022-07-31T11:48:09.418Z,4.07
2022-07-31T11:50:02.114Z,4.70
2022-07-31T11:52:36.687Z,4.82
2022-07-31T11:55:09.378Z,4.22
2022-07-31T11:57:51.363Z,4.10
2022-07-31T12:00:27.152Z,5.70
2022-07-31T12:02:59.026Z,5.68
2022-07-31T12:05:38.000Z,4.80
2022-07-31T12:08:09.311Z,4.53
2022-07-31T12:10:38.022Z,4.72
2022-07-31T12:13:06.066Z,4.53
2022-07-31T12:15:34.243Z,4.65
2022-07-31T12:18:03.738Z,4.00
2022-07-31T12:20:36.467Z,3.95
2022-07-31T12:23:06.366Z,3.75
2022-07-31T12:25:46.483Z,3.93
2022-07-31T12:28:15.096Z,4.10
2022-07-31T12:30:43.193Z,5.35
2022-07-31T12:33:13.065Z,4.45
2022-07-31T12:35:54.832Z,4.53
2022-07-31T12:38:45.369Z,4.10
2022-07-31T12:41:15.622Z,4.30
2022-07-31T12:43:51.183Z,4.10
2022-07-31T12:46:23.230Z,4.32
2022-07-31T12:48:52.217Z,4.45
2022-07-31T12:51:46.249Z,4.63
2022-07-31T12:54:09.378Z,5.00
2022-07-31T12:56:39.633Z,3.63
2022-07-31T12:59:08.264Z,4.22
2022-07-31T13:01:36.855Z,4.97
2022-07-31T13:04:07.623Z,3.90
2022-07-31T13:06:37.589Z,4.72
2022-07-31T13:09:06.333Z,4.43
2022-07-31T13:11:46.209Z,4.43
2022-07-31T13:14:18.157Z,4.22
2022-07-31T13:16:46.650Z,4.40
2022-07-31T13:19:15.406Z,4.53
2022-07-31T13:21:49.195Z,4.65
2022-07-31T13:24:19.482Z,4.40
2022-07-31T13:26:48.015Z,4.25
2022-07-31T13:29:18.285Z,5.50
2022-07-31T13:31:46.642Z,3.92
2022-07-31T13:34:14.834Z,3.80
2022-07-31T13:36:42.875Z,5.88
2022-07-31T13:39:11.198Z,5.28
2022-07-31T13:41:40.185Z,4.57
2022-07-31T13:44:08.366Z,5.53
2022-07-31T13:46:37.826Z,5.18
2022-07-31T13:49:08.692Z,5.38
2022-07-31T13:51:37.450Z,4.13
2022-07-31T13:54:05.790Z,4.07
2022-07-31T13:56:41.949Z,4.35
2022-07-31T13:59:12.464Z,4.45
2022-07-31T14:02:04.134Z,4.72
2022-07-31T14:04:32.941Z,7.20
2022-07-31T14:07:07.941Z,4.60
2022-07-31T14:09:37.578Z,4.30
2022-07-31T14:12:06.416Z,4.07
2022-07-31T14:14:35.147Z,4.25
2022-07-31T14:17:04.668Z,4.97
2022-07-31T14:19:42.006Z,4.47
2022-07-31T14:22:13.278Z,4.53
2022-07-31T14:24:41.912Z,4.15
2022-07-31T14:27:18.090Z,4.20
2022-07-31T14:29:46.719Z,4.13
2022-07-31T14:32:16.104Z,4.37
2022-07-31T14:34:44.117Z,4.47
2022-07-31T14:37:12.147Z,4.90
2022-07-31T14:39:41.343Z,4.00
2022-07-31T14:42:11.149Z,4.80
2022-07-31T14:44:41.625Z,4.17
2022-07-31T14:47:10.029Z,4.60
2022-07-31T14:50:09.455Z,4.18
2022-07-31T14:52:28.076Z,4.47
2022-07-31T14:54:56.197Z,5.70
2022-07-31T14:57:24.213Z,4.87
2022-07-31T14:59:52.537Z,4.72
2022-07-31T15:02:22.780Z,4.80
2022-07-31T15:04:52.831Z,4.53
2022-07-31T15:07:40.917Z,5.65
2022-07-31T15:10:11.384Z,4.87
2022-07-31T15:12:39.536Z,4.32
2022-07-31T15:15:08.780Z,4.50
2022-07-31T15:17:37.563Z,4.40
2022-07-31T15:20:08.128Z,4.20
2022-07-31T15:22:36.535Z,4.10
2022-07-31T15:25:04.771Z,4.55
2022-07-31T15:27:33.030Z,4.03
2022-07-31T15:30:07.159Z,3.97
2022-07-31T15:32:37.752Z,4.18
2022-07-31T15:35:09.468Z,4.87
2022-07-31T15:37:39.051Z,4.30
2022-07-31T15:40:11.527Z,4.18
2022-07-31T15:42:41.745Z,4.20
2022-07-31T15:45:12.338Z,4.07
2022-07-31T15:47:41.520Z,4.30
2022-07-31T15:50:14.671Z,5.78
2022-07-31T15:52:42.983Z,5.00
2022-07-31T15:55:11.725Z,5.18
2022-07-31T15:57:40.347Z,4.07
2022-07-31T16:00:10.686Z,5.30
2022-07-31T16:02:38.720Z,4.20
2022-07-31T16:05:11.815Z,4.32
2022-07-31T16:08:32.164Z,5.30
2022-07-31T16:10:39.633Z,4.20
2022-07-31T16:13:07.998Z,4.87
2022-07-31T16:15:36.046Z,4.38
2022-07-31T16:18:04.626Z,4.35
2022-07-31T16:20:32.936Z,4.15
2022-07-31T16:23:02.683Z,3.95
2022-07-31T16:25:34.590Z,4.67
2022-07-31T16:28:02.996Z,4.35
2022-07-31T16:30:31.181Z,4.15
2022-07-31T16:32:59.245Z,4.20
2022-07-31T16:35:27.638Z,4.85
2022-07-31T16:37:55.972Z,4.27
2022-07-31T16:40:30.068Z,4.18
2022-07-31T16:43:01.933Z,5.03
2022-07-31T16:45:30.802Z,4.65
2022-07-31T16:47:59.257Z,4.97
2022-07-31T16:50:27.493Z,4.10
2022-07-31T16:52:55.639Z,4.25
2022-07-31T16:55:51.681Z,4.50
2022-07-31T16:58:16.673Z,4.20
2022-07-31T17:00:44.836Z,4.50
2022-07-31T17:04:01.610Z,4.67
2022-07-31T17:06:01.034Z,4.43
2022-07-31T17:08:29.727Z,4.85
2022-07-31T17:10:59.055Z,4.88
2022-07-31T17:13:27.165Z,6.50
2022-07-31T17:15:55.102Z,5.77
2022-07-31T17:18:25.257Z,4.60
2022-07-31T17:20:56.238Z,4.85
2022-07-31T17:23:44.303Z,4.47
2022-07-31T17:26:21.559Z,5.50
2022-07-31T17:28:50.897Z,9.93
2022-07-31T17:31:19.445Z,8.43
2022-07-31T17:33:58.331Z,9.07
2022-07-31T17:36:28.507Z,7.78
2022-07-31T17:38:56.634Z,7.18
2022-07-31T17:41:26.351Z,4.43
2022-07-31T17:43:54.891Z,4.28
2022-07-31T17:46:34.341Z,4.82
2022-07-31T17:49:05.818Z,4.40
2022-07-31T17:51:34.239Z,4.78
2022-07-31T17:54:02.378Z,4.67
2022-07-31T17:56:31.876Z,4.82
2022-07-31T17:59:04.631Z,4.40
2022-07-31T18:01:34.528Z,4.25
2022-07-31T18:04:03.296Z,4.70
2022-07-31T18:06:31.755Z,5.60
2022-07-31T18:09:00.178Z,4.38
2022-07-31T18:11:28.451Z,4.32
2022-07-31T18:14:01.117Z,4.50
2022-07-31T18:16:31.688Z,4.63
2022-07-31T18:18:59.763Z,8.63
2022-07-31T18:21:27.814Z,6.85
2022-07-31T18:23:55.948Z,5.43
2022-07-31T18:26:24.104Z,4.95
2022-07-31T18:28:52.132Z,4.85
2022-07-31T18:31:32.713Z,4.10
2022-07-31T18:34:04.232Z,4.03
2022-07-31T18:36:32.649Z,4.82
2022-07-31T18:39:00.968Z,5.80
2022-07-31T18:41:29.658Z,4.78
2022-07-31T18:43:58.308Z,4.27
2022-07-31T18:46:27.825Z,4.60
2022-07-31T18:48:56.933Z,4.57
2022-07-31T18:51:25.897Z,4.07
2022-07-31T18:53:54.900Z,4.28
2022-07-31T18:56:23.794Z,4.63
2022-07-31T18:58:52.200Z,5.00
2022-07-31T19:01:20.872Z,4.88
2022-07-31T19:03:52.694Z,4.90
2022-07-31T19:06:22.723Z,4.75
2022-07-31T19:08:52.020Z,5.70
2022-07-31T19:11:20.213Z,4.32
2022-07-31T19:13:48.365Z,5.03
2022-07-31T19:16:17.784Z,5.82
2022-07-31T19:18:47.636Z,4.65
2022-07-31T19:21:41.198Z,6.10
2022-07-31T19:24:09.458Z,5.70
2022-07-31T19:26:38.581Z,5.80
2022-07-31T19:29:06.843Z,5.22
2022-07-31T19:31:34.977Z,5.50
2022-07-31T19:34:03.029Z,4.30
2022-07-31T19:36:32.423Z,4.80
2022-07-31T19:39:00.493Z,5.43
2022-07-31T19:41:28.566Z,5.15
2022-07-31T19:43:56.680Z,5.25
2022-07-31T19:46:24.659Z,4.80
2022-07-31T19:48:52.894Z,4.80
2022-07-31T19:51:20.981Z,5.45
2022-07-31T19:53:50.465Z,6.25
2022-07-31T19:56:21.053Z,6.95
2022-07-31T19:58:50.101Z,5.87
2022-07-31T20:01:20.224Z,6.13
2022-07-31T20:03:49.944Z,5.10
2022-07-31T20:06:18.333Z,5.07
2022-07-31T20:08:46.657Z,4.53
2022-07-31T20:11:17.266Z,5.50
2022-07-31T20:13:45.899Z,4.85
2022-07-31T20:16:15.199Z,4.75
2022-07-31T20:18:43.873Z,5.05
2022-07-31T20:21:12.278Z,5.40
2022-07-31T20:23:41.761Z,5.37
2022-07-31T20:26:13.768Z,6.03
2022-07-31T20:28:44.322Z,4.75
2022-07-31T20:31:16.096Z,5.55
2022-07-31T20:33:56.976Z,5.40
2022-07-31T20:36:26.812Z,5.40
2022-07-31T20:38:55.072Z,4.88
2022-07-31T20:41:23.107Z,5.18
2022-07-31T20:43:52.813Z,6.55
2022-07-31T20:46:20.958Z,4.63
2022-07-31T20:48:50.102Z,6.50
2022-07-31T20:51:22.060Z,5.13
2022-07-31T20:53:50.515Z,5.20
2022-07-31T20:56:18.576Z,5.15
2022-07-31T20:58:51.399Z,5.20
2022-07-31T21:01:22.046Z,5.53
2022-07-31T21:03:50.484Z,8.07
2022-07-31T21:06:19.433Z,5.63
2022-07-31T21:08:47.480Z,5.25
2022-07-31T21:11:15.561Z,4.80
2022-07-31T21:13:45.474Z,5.37
2022-07-31T21:16:13.859Z,5.30
2022-07-31T21:18:43.793Z,5.32
2022-07-31T21:21:12.352Z,5.00
2022-07-31T21:23:40.433Z,4.95
2022-07-31T21:26:08.825Z,6.27
2022-07-31T21:28:37.346Z,6.18
2022-07-31T21:31:05.754Z,5.05
2022-07-31T21:33:34.330Z,5.25
2022-07-31T21:36:05.954Z,6.30
2022-07-31T21:38:36.393Z,5.87
2022-07-31T21:41:05.680Z,5.15
2022-07-31T21:43:58.110Z,5.95
2022-07-31T21:46:23.619Z,5.32
2022-07-31T21:48:52.411Z,5.22
2022-07-31T21:51:22.428Z,5.13
2022-07-31T21:53:50.437Z,5.18
2022-07-31T21:56:18.456Z,6.88
2022-07-31T21:58:46.474Z,5.10
2022-07-31T22:01:15.320Z,5.80
2022-07-31T22:03:43.919Z,5.87
2022-07-31T22:06:29.345Z,5.97
2022-07-31T22:08:58.870Z,5.68
2022-07-31T22:11:26.983Z,6.60
2022-07-31T22:13:54.985Z,5.45
2022-07-31T22:16:23.025Z,5.80
2022-07-31T22:18:51.753Z,5.78
2022-07-31T22:21:20.109Z,6.22
2022-07-31T22:23:48.601Z,5.60
2022-07-31T22:26:18.121Z,5.60
2022-07-31T22:28:47.654Z,5.53
2022-07-31T22:31:16.355Z,6.35
2022-07-31T22:33:44.620Z,6.90
2022-07-31T22:36:13.255Z,5.18
2022-07-31T22:38:45.050Z,6.70
2022-07-31T22:41:13.588Z,5.43
2022-07-31T22:44:13.648Z,5.75
2022-07-31T22:46:32.640Z,6.53
2022-07-31T22:49:02.190Z,5.50
2022-07-31T22:51:30.474Z,5.78
2022-07-31T22:53:58.495Z,5.40
2022-07-31T22:56:26.593Z,5.35
2022-07-31T22:58:56.018Z,7.20
2022-07-31T23:01:24.046Z,7.10
2022-07-31T23:03:53.639Z,6.00
2022-07-31T23:06:31.125Z,6.00
2022-07-31T23:09:00.754Z,5.50
2022-07-31T23:11:28.961Z,5.30
2022-07-31T23:13:58.479Z,5.93
2022-07-31T23:16:26.719Z,5.80
2022-07-31T23:18:54.871Z,5.90
2022-07-31T23:21:23.005Z,5.93
2022-07-31T23:23:51.434Z,6.97
2022-07-31T23:26:20.412Z,6.55
2022-07-31T23:28:48.932Z,6.10
2022-07-31T23:31:18.805Z,6.37
2022-07-31T23:33:48.045Z,5.70
2022-07-31T23:36:16.929Z,7.45
2022-07-31T23:38:45.726Z,6.32
2022-07-31T23:41:14.220Z,6.05
2022-07-31T23:43:55.375Z,5.70
2022-07-31T23:46:26.927Z,6.25
2022-07-31T23:48:56.302Z,5.60
2022-07-31T23:51:24.953Z,8.52
2022-07-31T23:53:53.282Z,6.70
2022-07-31T23:56:21.515Z,5.70
2022-07-31T23:58:49.933Z,7.03
